createdAt,value
2016-03-07T00:00:54.047Z,7.5
2016-03-07T00:01:54.065Z,7.54
2016-03-07T00:02:54.085Z,7.51
2016-03-07T00:03:54.087Z,7.48
2016-03-07T00:04:54.121Z,7.54
2016-03-07T00:05:54.154Z,7.51
2016-03-07T00:06:54.157Z,7.53
2016-03-07T00:07:54.160Z,7.51
2016-03-07T00:08:54.193Z,7.51
2016-03-07T00:09:54.212Z,7.53
2016-03-07T00:10:54.215Z,7.51
2016-03-07T00:11:54.218Z,7.53
2016-03-07T00:12:54.252Z,7.53
2016-03-07T00:13:54.254Z,7.5
2016-03-07T00:14:54.272Z,7.6
2016-03-07T00:15:54.291Z,7.5
2016-03-07T00:16:54.309Z,7.5
2016-03-07T00:17:54.327Z,7.53
2016-03-07T00:18:54.346Z,7.57
2016-03-07T00:19:54.442Z,7.53
2016-03-07T00:20:54.367Z,7.54
2016-03-07T00:21:54.386Z,7.51
2016-03-07T00:22:54.403Z,7.47
2016-03-07T00:23:54.421Z,7.5
2016-03-07T00:24:54.440Z,7.5
2016-03-07T00:25:54.458Z,7.43
2016-03-07T00:26:54.460Z,7.51
2016-03-07T00:27:54.479Z,7.5
2016-03-07T00:28:54.513Z,7.51
2016-03-07T00:29:54.516Z,7.48
2016-03-07T00:30:54.535Z,7.61
2016-03-07T00:31:54.552Z,7.48
2016-03-07T00:32:54.571Z,7.5
2016-03-07T00:33:54.589Z,7.45
2016-03-07T00:34:54.608Z,7.51
2016-03-07T00:35:54.610Z,7.47
2016-03-07T00:36:54.643Z,7.54
2016-03-07T00:37:54.647Z,7.53
2016-03-07T00:38:54.681Z,7.45
2016-03-07T00:39:54.684Z,7.53
2016-03-07T00:40:54.702Z,7.42
2016-03-07T00:41:54.720Z,7.53
2016-03-07T00:42:54.723Z,7.47
2016-03-07T00:43:54.741Z,7.61
2016-03-07T00:44:54.775Z,7.48
2016-03-07T00:45:54.777Z,7.51
2016-03-07T00:46:54.796Z,7.53
2016-03-07T00:47:54.814Z,7.5
2016-03-07T00:48:54.833Z,7.51
2016-03-07T00:49:54.867Z,7.53
2016-03-07T00:50:54.853Z,7.47
2016-03-07T00:51:54.872Z,7.53
2016-03-07T00:52:54.890Z,7.53
2016-03-07T00:53:54.908Z,7.5
2016-03-07T00:54:54.942Z,7.47
2016-03-07T00:55:54.945Z,7.51
2016-03-07T00:56:54.963Z,7.53
2016-03-07T00:57:54.982Z,7.51
2016-03-07T00:58:55.000Z,7.53
2016-03-07T00:59:55.003Z,7.51
2016-03-07T01:00:55.036Z,7.51
2016-03-07T01:01:55.039Z,7.5
2016-03-07T01:02:55.042Z,7.47
2016-03-07T01:03:55.060Z,7.54
2016-03-07T01:04:55.094Z,7.43
2016-03-07T01:05:55.082Z,7.53
2016-03-07T01:06:55.131Z,7.53
2016-03-07T01:07:55.119Z,7.48
2016-03-07T01:08:55.152Z,7.54
2016-03-07T01:09:55.170Z,7.51
2016-03-07T01:10:55.173Z,7.47
2016-03-07T01:11:55.207Z,7.47
2016-03-07T01:12:55.225Z,7.5
2016-03-07T01:13:55.228Z,7.53
2016-03-07T01:14:55.246Z,7.5
2016-03-07T01:15:55.264Z,7.53
2016-03-07T01:16:55.284Z,7.56
2016-03-07T01:17:55.301Z,7.53
2016-03-07T01:18:55.304Z,7.48
2016-03-07T01:19:55.337Z,7.51
2016-03-07T01:20:55.356Z,7.53
2016-03-07T01:21:55.359Z,7.56
2016-03-07T01:22:55.392Z,7.47
2016-03-07T01:23:55.380Z,7.42
2016-03-07T01:24:55.398Z,7.48
2016-03-07T01:25:55.448Z,7.5
2016-03-07T01:26:55.436Z,7.53
2016-03-07T01:27:55.469Z,7.47
2016-03-07T01:28:55.471Z,7.51
2016-03-07T01:29:55.506Z,7.53
2016-03-07T01:30:55.524Z,7.51
2016-03-07T01:31:55.510Z,7.54
2016-03-07T01:32:55.560Z,7.51
2016-03-07T01:33:55.547Z,7.53
2016-03-07T01:34:55.581Z,7.51
2016-03-07T01:35:55.600Z,7.53
2016-03-07T01:36:55.602Z,7.48
2016-03-07T01:37:55.620Z,7.48
2016-03-07T01:38:55.639Z,7.5
2016-03-07T01:39:55.641Z,7.51
2016-03-07T01:40:55.660Z,7.51
2016-03-07T01:41:55.678Z,7.53
2016-03-07T01:42:55.696Z,7.5
2016-03-07T01:43:55.715Z,7.5
2016-03-07T01:44:55.749Z,7.5
2016-03-07T01:45:55.736Z,7.5
2016-03-07T01:46:55.754Z,7.47
2016-03-07T01:47:55.773Z,7.51
2016-03-07T01:48:55.790Z,7.53
2016-03-07T01:49:55.825Z,7.54
2016-03-07T01:50:55.827Z,7.45
2016-03-07T01:51:55.846Z,7.48
2016-03-07T01:52:55.864Z,7.51
2016-03-07T01:53:55.867Z,7.42
2016-03-07T01:54:55.901Z,7.48
2016-03-07T01:55:55.903Z,7.51
2016-03-07T01:56:55.922Z,7.45
2016-03-07T01:57:55.940Z,7.5
2016-03-07T01:59:02.224Z,7.47
2016-03-07T01:59:55.960Z,7.48
2016-03-07T02:00:55.980Z,7.48
2016-03-07T02:01:56.013Z,7.48
2016-03-07T02:02:56.047Z,7.48
2016-03-07T02:03:56.035Z,7.45
2016-03-07T02:04:56.068Z,7.54
2016-03-07T02:05:56.071Z,7.42
2016-03-07T02:06:56.089Z,7.4
2016-03-07T02:07:56.123Z,7.47
2016-03-07T02:08:56.126Z,7.48
2016-03-07T02:09:56.160Z,7.51
2016-03-07T02:10:56.147Z,7.45
2016-03-07T02:11:56.165Z,7.51
2016-03-07T02:12:56.199Z,7.48
2016-03-07T02:13:56.218Z,7.51
2016-03-07T02:14:56.220Z,7.47
2016-03-07T02:15:56.082Z,7.43
2016-03-07T02:29:03.196Z,7.36
2016-03-07T02:29:15.712Z,7.48
2016-03-07T02:30:15.730Z,7.45
2016-03-07T02:31:15.764Z,7.4
2016-03-07T02:32:15.766Z,7.5
2016-03-07T02:33:15.784Z,7.4
2016-03-07T02:34:15.802Z,7.48
2016-03-07T02:35:15.055Z,7.47
2016-03-07T02:36:15.855Z,7.35
2016-03-07T02:37:15.842Z,7.35
2016-03-07T02:38:15.877Z,7.4
2016-03-07T02:39:15.925Z,7.36
2016-03-07T02:40:15.882Z,7.36
2016-03-07T02:41:15.915Z,7.31
2016-03-07T02:42:15.918Z,7.39
2016-03-07T02:43:15.936Z,7.38
2016-03-07T02:44:15.954Z,7.33
2016-03-07T02:45:15.974Z,7.35
2016-03-07T02:46:15.991Z,7.31
2016-03-07T02:47:15.994Z,7.36
2016-03-07T02:48:16.012Z,7.31
2016-03-07T02:49:16.046Z,7.32
2016-03-07T02:50:16.049Z,7.33
2016-03-07T02:51:16.067Z,7.28
2016-03-07T02:52:16.085Z,7.33
2016-03-07T02:53:16.088Z,7.33
2016-03-07T02:54:16.123Z,7.28
2016-03-07T02:55:16.125Z,7.32
2016-03-07T02:56:16.143Z,7.24
2016-03-07T02:57:16.161Z,7.2
2016-03-07T02:58:16.180Z,7.32
2016-03-07T02:59:16.183Z,7.21
2016-03-07T03:00:16.231Z,7.18
2016-03-07T03:01:16.235Z,7.23
2016-03-07T03:02:16.253Z,7.31
2016-03-07T03:03:16.256Z,7.24
2016-03-07T03:04:16.274Z,7.24
2016-03-07T03:05:16.292Z,7.23
2016-03-07T03:06:16.311Z,7.18
2016-03-07T03:07:16.344Z,7.31
2016-03-07T03:08:16.347Z,7.29
2016-03-07T03:09:16.366Z,7.31
2016-03-07T03:10:16.400Z,7.31
2016-03-07T03:11:16.386Z,7.33
2016-03-07T03:12:16.405Z,7.33
2016-03-07T03:13:16.439Z,7.31
2016-03-07T03:14:16.441Z,7.36
2016-03-07T03:15:16.460Z,7.36
2016-03-07T03:16:16.478Z,7.33
2016-03-07T03:17:16.482Z,7.24
2016-03-07T03:18:16.515Z,7.21
2016-03-07T03:19:16.518Z,7.24
2016-03-07T03:20:16.535Z,7.29
2016-03-07T03:21:16.554Z,7.39
2016-03-07T03:22:16.573Z,7.31
2016-03-07T03:23:16.590Z,7.33
2016-03-07T03:24:16.593Z,7.38
2016-03-07T03:25:16.612Z,7.31
2016-03-07T03:26:16.646Z,7.29
2016-03-07T03:27:16.633Z,7.24
2016-03-07T03:28:16.651Z,7.29
2016-03-07T03:29:16.701Z,7.31
2016-03-07T03:30:16.687Z,7.29
2016-03-07T03:31:16.706Z,7.24
2016-03-07T03:32:16.724Z,7.29
2016-03-07T03:33:16.758Z,7.25
2016-03-07T03:34:16.745Z,7.33
2016-03-07T03:35:16.811Z,7.38
2016-03-07T03:36:16.783Z,7.29
2016-03-07T03:37:16.800Z,7.29
2016-03-07T03:38:16.834Z,7.38
2016-03-07T03:39:16.836Z,7.35
2016-03-07T03:40:16.855Z,7.32
2016-03-07T03:41:16.889Z,7.32
2016-03-07T03:42:16.892Z,7.33
2016-03-07T03:43:16.910Z,7.33
2016-03-07T03:44:16.913Z,7.35
2016-03-07T03:45:16.932Z,7.38
2016-03-07T03:46:16.949Z,7.38
2016-03-07T03:47:16.968Z,7.36
2016-03-07T03:48:16.985Z,7.39
2016-03-07T03:49:16.988Z,7.35
2016-03-07T03:50:17.007Z,7.35
2016-03-07T03:51:17.041Z,7.39
2016-03-07T03:52:17.043Z,7.32
2016-03-07T03:53:17.062Z,7.33
2016-03-07T03:54:17.080Z,7.39
2016-03-07T03:55:17.114Z,7.42
2016-03-07T03:56:17.117Z,7.35
2016-03-07T03:57:17.120Z,7.36
2016-03-07T03:58:17.137Z,7.35
2016-03-07T03:59:17.157Z,7.28
2016-03-07T04:00:17.206Z,7.33
2016-03-07T04:01:17.193Z,7.36
2016-03-07T04:02:17.195Z,7.31
2016-03-07T04:03:17.230Z,7.32
2016-03-07T04:04:17.247Z,7.38
2016-03-07T04:05:17.251Z,7.33
2016-03-07T04:06:17.284Z,7.31
2016-03-07T04:07:17.287Z,7.28
2016-03-07T04:08:17.305Z,7.32
2016-03-07T04:09:17.308Z,7.31
2016-03-07T04:10:17.342Z,7.31
2016-03-07T04:11:17.377Z,7.29
2016-03-07T04:12:17.363Z,7.31
2016-03-07T04:13:17.382Z,7.35
2016-03-07T04:14:17.400Z,7.32
2016-03-07T04:15:17.419Z,7.32
2016-03-07T04:16:17.436Z,7.2
2016-03-07T04:17:17.470Z,7.18
2016-03-07T04:18:17.457Z,7.28
2016-03-07T04:19:17.476Z,7.23
2016-03-07T04:20:17.541Z,7.18
2016-03-07T04:21:17.512Z,7.17
2016-03-07T04:22:17.531Z,7.18
2016-03-07T04:23:17.533Z,7.21
2016-03-07T04:24:17.551Z,7.2
2016-03-07T04:25:17.585Z,7.2
2016-03-07T04:26:17.588Z,7.15
2016-03-07T04:27:17.606Z,7.15
2016-03-07T04:28:17.626Z,7.15
2016-03-07T04:29:17.643Z,7.2
2016-03-07T04:30:17.646Z,7.17
2016-03-07T04:31:17.664Z,7.13
2016-03-07T04:32:17.683Z,7.21
2016-03-07T04:33:17.716Z,7.17
2016-03-07T04:34:17.720Z,7.2
2016-03-07T04:35:17.945Z,7.17
2016-03-07T04:36:17.603Z,7.21
2016-03-07T04:37:17.777Z,7.13
2016-03-07T04:38:17.781Z,7.21
2016-03-07T04:39:17.798Z,7.18
2016-03-07T04:40:17.817Z,7.15
2016-03-07T04:41:17.870Z,7.2
2016-03-07T04:42:17.857Z,7.15
2016-03-07T04:43:17.859Z,7.11
2016-03-07T04:44:18.004Z,7.17
2016-03-07T04:45:17.896Z,7.06
2016-03-07T04:46:17.931Z,7.06
2016-03-07T04:47:17.933Z,7.15
2016-03-07T04:48:17.967Z,7.18
2016-03-07T04:49:17.954Z,7.18
2016-03-07T04:50:17.973Z,7.24
2016-03-07T04:51:18.006Z,7.15
2016-03-07T04:52:18.009Z,7.1
2016-03-07T04:53:18.028Z,7.11
2016-03-07T04:54:18.061Z,7.23
2016-03-07T04:55:18.048Z,7.13
2016-03-07T04:56:18.066Z,7.17
2016-03-07T04:57:18.100Z,7.11
2016-03-07T04:58:18.088Z,7.03
2016-03-07T04:59:18.153Z,7.14
2016-03-07T05:00:18.124Z,7
2016-03-07T05:01:18.158Z,7.03
2016-03-07T05:02:18.161Z,7.07
2016-03-07T05:03:18.038Z,7.02
2016-03-07T05:04:18.041Z,7.02
2016-03-07T05:05:18.215Z,7.03
2016-03-07T05:06:18.226Z,7.06
2016-03-07T05:07:18.244Z,7.02
2016-03-07T05:08:18.263Z,7.03
2016-03-07T05:09:18.266Z,7.03
2016-03-07T05:10:18.299Z,7.05
2016-03-07T05:11:18.302Z,6.92
2016-03-07T05:12:17.571Z,6.95
2016-03-07T05:13:18.338Z,6.85
2016-03-07T05:14:18.420Z,7.03
2016-03-07T05:15:18.375Z,6.93
2016-03-07T05:16:18.378Z,6.88
2016-03-07T05:17:18.412Z,6.89
2016-03-07T05:18:18.415Z,6.92
2016-03-07T05:19:18.464Z,6.92
2016-03-07T05:20:18.467Z,6.89
2016-03-07T05:21:18.469Z,6.84
2016-03-07T05:22:21.503Z,6.87
2016-03-07T05:23:18.506Z,6.92
2016-03-07T05:24:18.525Z,6.84
2016-03-07T05:25:18.527Z,6.93
2016-03-07T05:26:18.545Z,6.92
2016-03-07T05:27:18.548Z,6.84
2016-03-07T05:28:18.583Z,6.78
2016-03-07T05:29:18.616Z,6.81
2016-03-07T05:30:18.603Z,6.84
2016-03-07T05:31:18.636Z,6.88
2016-03-07T05:32:18.640Z,6.82
2016-03-07T05:33:18.658Z,6.84
2016-03-07T05:34:18.661Z,6.75
2016-03-07T05:35:18.694Z,6.82
2016-03-07T05:36:18.697Z,6.79
2016-03-07T05:37:18.716Z,6.75
2016-03-07T05:38:18.735Z,6.77
2016-03-07T05:39:18.752Z,6.7
2016-03-07T05:40:18.771Z,6.72
2016-03-07T05:41:18.774Z,6.79
2016-03-07T05:42:18.807Z,6.75
2016-03-07T05:43:18.826Z,6.69
2016-03-07T05:44:18.875Z,6.72
2016-03-07T05:45:18.862Z,6.69
2016-03-07T05:46:18.849Z,6.63
2016-03-07T05:47:18.884Z,6.7
2016-03-07T05:48:18.886Z,6.72
2016-03-07T05:49:18.920Z,6.72
2016-03-07T05:50:18.922Z,6.67
2016-03-07T05:51:18.926Z,6.62
2016-03-07T05:52:18.943Z,6.64
2016-03-07T05:53:18.978Z,6.63
2016-03-07T05:54:18.980Z,6.62
2016-03-07T05:55:18.999Z,6.64
2016-03-07T05:56:19.017Z,6.64
2016-03-07T05:57:19.036Z,6.67
2016-03-07T05:58:19.053Z,6.62
2016-03-07T05:59:18.978Z,6.64
2016-03-07T06:00:19.075Z,6.72
2016-03-07T06:01:19.109Z,6.63
2016-03-07T06:02:19.111Z,6.62
2016-03-07T06:03:19.130Z,6.64
2016-03-07T06:04:19.147Z,6.64
2016-03-07T06:05:19.166Z,6.77
2016-03-07T06:06:19.169Z,6.6
2016-03-07T06:07:19.187Z,6.51
2016-03-07T06:08:19.221Z,6.57
2016-03-07T06:09:19.224Z,6.56
2016-03-07T06:10:19.227Z,6.62
2016-03-07T06:11:19.354Z,6.7
2016-03-07T06:12:19.263Z,6.6
2016-03-07T06:13:19.281Z,6.7
2016-03-07T06:14:19.331Z,6.6
2016-03-07T06:15:19.318Z,6.64
2016-03-07T06:16:19.337Z,6.62
2016-03-07T06:17:19.339Z,6.62
2016-03-07T06:18:19.357Z,6.57
2016-03-07T06:19:19.375Z,6.67
2016-03-07T06:20:19.394Z,6.62
2016-03-07T06:21:19.412Z,6.62
2016-03-07T06:22:19.415Z,6.6
2016-03-07T06:23:19.433Z,6.6
2016-03-07T06:24:19.468Z,6.59
2016-03-07T06:25:19.470Z,6.69
2016-03-07T06:26:19.504Z,6.57
2016-03-07T06:27:19.522Z,6.62
2016-03-07T06:28:19.509Z,6.57
2016-03-07T06:29:19.543Z,6.6
2016-03-07T06:30:19.531Z,6.63
2016-03-07T06:31:19.580Z,6.57
2016-03-07T06:32:19.583Z,6.57
2016-03-07T06:33:19.600Z,6.57
2016-03-07T06:34:19.635Z,6.67
2016-03-07T06:35:19.638Z,6.62
2016-03-07T06:36:19.640Z,6.72
2016-03-07T06:37:19.658Z,6.75
2016-03-07T06:38:19.661Z,6.66
2016-03-07T06:39:19.680Z,6.64
2016-03-07T06:40:19.713Z,6.57
2016-03-07T06:41:19.716Z,6.64
2016-03-07T06:42:19.734Z,6.62
2016-03-07T06:43:19.753Z,6.63
2016-03-07T06:44:19.802Z,6.64
2016-03-07T06:45:19.821Z,6.69
2016-03-07T06:46:19.792Z,6.72
2016-03-07T06:47:19.826Z,6.72
2016-03-07T06:48:19.828Z,6.64
2016-03-07T06:49:19.847Z,6.67
2016-03-07T06:50:19.849Z,6.7
2016-03-07T06:51:19.868Z,6.77
2016-03-07T06:52:19.902Z,6.75
2016-03-07T06:53:19.905Z,6.75
2016-03-07T06:54:19.907Z,6.78
2016-03-07T06:55:19.942Z,6.74
2016-03-07T06:56:19.944Z,6.74
2016-03-07T06:57:19.957Z,6.84
2016-03-07T06:58:19.976Z,6.79
2016-03-07T06:59:19.964Z,6.74
2016-03-07T07:00:19.952Z,6.81
2016-03-07T07:01:19.956Z,6.87
2016-03-07T07:02:19.964Z,6.81
2016-03-07T07:03:19.976Z,6.92
2016-03-07T07:04:19.989Z,6.87
2016-03-07T07:05:20.003Z,6.93
2016-03-07T07:06:20.342Z,6.84
2016-03-07T07:07:20.029Z,6.88
2016-03-07T07:08:20.030Z,6.88
2016-03-07T07:09:20.046Z,6.87
2016-03-07T07:10:20.063Z,6.92
2016-03-07T07:11:20.080Z,6.87
2016-03-07T07:12:20.081Z,6.93
2016-03-07T07:13:20.114Z,6.92
2016-03-07T07:14:20.132Z,6.92
2016-03-07T07:15:20.150Z,6.88
2016-03-07T07:16:20.152Z,7.03
2016-03-07T07:17:20.175Z,7.03
2016-03-07T07:18:20.177Z,6.99
2016-03-07T07:19:20.195Z,7.05
2016-03-07T07:20:20.214Z,7.02
2016-03-07T07:21:20.232Z,7.03
2016-03-07T07:22:20.234Z,7.02
2016-03-07T07:23:20.267Z,7.11
2016-03-07T07:24:20.271Z,7.06
2016-03-07T07:25:20.288Z,7.07
2016-03-07T07:26:20.291Z,7.07
2016-03-07T07:27:20.325Z,7.21
2016-03-07T07:28:20.531Z,7.2
2016-03-07T07:29:20.345Z,7.13
2016-03-07T07:30:20.380Z,7.18
2016-03-07T07:31:20.383Z,7.17
2016-03-07T07:32:20.432Z,7.14
2016-03-07T07:33:20.420Z,7.2
2016-03-07T07:34:20.422Z,7.14
2016-03-07T07:35:20.440Z,7.15
2016-03-07T07:36:20.459Z,7.15
2016-03-07T07:37:20.633Z,7.14
2016-03-07T07:38:20.511Z,7.14
2016-03-07T07:39:20.498Z,7.13
2016-03-07T07:40:20.516Z,7.24
2016-03-07T07:41:20.581Z,7.18
2016-03-07T07:42:20.552Z,7.23
2016-03-07T07:43:20.587Z,7.18
2016-03-07T07:44:20.574Z,7.24
2016-03-07T07:45:20.592Z,7.2
2016-03-07T07:46:20.610Z,7.24
2016-03-07T07:47:20.645Z,7.28
2016-03-07T07:48:20.647Z,7.21
2016-03-07T07:49:20.666Z,7.28
2016-03-07T07:50:20.684Z,7.33
2016-03-07T07:51:20.687Z,7.29
2016-03-07T07:52:20.829Z,7.31
2016-03-07T07:53:20.832Z,7.33
2016-03-07T07:54:20.740Z,7.31
2016-03-07T07:55:20.759Z,7.38
2016-03-07T07:56:20.778Z,7.38
2016-03-07T07:57:20.781Z,7.28
2016-03-07T07:58:20.799Z,7.24
2016-03-07T07:59:20.833Z,7.38
2016-03-07T08:00:20.836Z,7.36
2016-03-07T08:01:20.854Z,7.35
2016-03-07T08:02:20.873Z,7.32
2016-03-07T08:03:20.890Z,7.4
2016-03-07T08:04:20.909Z,7.36
2016-03-07T08:05:20.911Z,7.42
2016-03-07T08:06:20.930Z,7.47
2016-03-07T08:07:20.963Z,7.42
2016-03-07T08:08:20.966Z,7.4
2016-03-07T08:09:21.000Z,7.43
2016-03-07T08:10:21.019Z,7.42
2016-03-07T08:11:21.005Z,7.45
2016-03-07T08:12:21.040Z,7.43
2016-03-07T08:13:21.074Z,7.48
2016-03-07T08:14:21.061Z,7.51
2016-03-07T08:15:21.080Z,7.48
2016-03-07T08:16:24.113Z,7.53
2016-03-07T08:17:21.100Z,7.43
2016-03-07T08:18:21.134Z,7.51
2016-03-07T08:19:21.152Z,7.5
2016-03-07T08:20:21.171Z,7.53
2016-03-07T08:21:21.173Z,7.45
2016-03-07T08:22:21.191Z,7.6
2016-03-07T08:23:21.209Z,7.66
2016-03-07T08:24:21.212Z,7.53
2016-03-07T08:25:21.246Z,7.63
2016-03-07T08:26:21.249Z,7.67
2016-03-07T08:27:21.268Z,7.61
2016-03-07T08:28:21.287Z,7.63
2016-03-07T08:29:21.304Z,7.63
2016-03-07T08:30:21.307Z,7.63
2016-03-07T08:31:21.325Z,7.61
2016-03-07T08:32:21.359Z,7.73
2016-03-07T08:33:21.362Z,7.75
2016-03-07T08:34:21.380Z,7.69
2016-03-07T08:35:21.414Z,7.7
2016-03-07T08:36:21.417Z,7.75
2016-03-07T08:37:21.435Z,7.82
2016-03-07T08:38:21.453Z,7.76
2016-03-07T08:39:21.456Z,7.87
2016-03-07T08:40:21.474Z,7.79
2016-03-07T08:41:21.493Z,7.77
2016-03-07T08:42:21.527Z,7.75
2016-03-07T08:43:21.530Z,7.79
2016-03-07T08:44:21.547Z,7.77
2016-03-07T08:45:21.566Z,7.8
2016-03-07T08:46:21.569Z,7.83
2016-03-07T08:47:21.588Z,7.9
2016-03-07T08:48:21.621Z,7.93
2016-03-07T08:49:21.623Z,7.87
2016-03-07T08:50:21.642Z,8.05
2016-03-07T08:51:21.660Z,7.98
2016-03-07T08:52:21.663Z,8.05
2016-03-07T08:53:21.681Z,8.08
2016-03-07T08:54:21.699Z,8.01
2016-03-07T08:55:21.734Z,8.1
2016-03-07T08:56:21.720Z,8.1
2016-03-07T08:57:21.770Z,8.15
2016-03-07T08:58:21.773Z,8.12
2016-03-07T08:59:21.791Z,8.23
2016-03-07T09:00:21.793Z,8.27
2016-03-07T09:01:21.828Z,8.23
2016-03-07T09:02:21.830Z,8.34
2016-03-07T09:03:21.849Z,8.36
2016-03-07T09:04:22.836Z,8.36
2016-03-07T09:05:21.870Z,8.36
2016-03-07T09:06:21.904Z,8.44
2016-03-07T09:07:21.906Z,8.52
2016-03-07T09:08:21.925Z,8.49
2016-03-07T09:09:21.942Z,8.48
2016-03-07T09:10:21.961Z,8.53
2016-03-07T09:11:21.964Z,8.58
2016-03-07T09:12:22.201Z,8.67
2016-03-07T09:13:22.016Z,8.7
2016-03-07T09:14:22.019Z,8.69
2016-03-07T09:15:22.053Z,8.69
2016-03-07T09:16:22.055Z,8.69
2016-03-07T09:17:22.058Z,8.82
2016-03-07T09:18:22.092Z,8.76
2016-03-07T09:19:22.095Z,8.84
2016-03-07T09:20:22.129Z,8.91
2016-03-07T09:21:22.132Z,8.91
2016-03-07T09:22:22.166Z,8.94
2016-03-07T09:23:22.169Z,8.95
2016-03-07T09:24:22.186Z,9.04
2016-03-07T09:25:22.204Z,9.08
2016-03-07T09:26:22.223Z,9.08
2016-03-07T09:27:22.226Z,9.14
2016-03-07T09:28:22.259Z,9.23
2016-03-07T09:29:22.262Z,9.29
2016-03-07T09:30:22.328Z,9.21
2016-03-07T09:31:22.299Z,9.39
2016-03-07T09:32:22.317Z,9.46
2016-03-07T09:33:22.336Z,9.44
2016-03-07T09:34:22.354Z,9.5
2016-03-07T09:35:22.373Z,9.62
2016-03-07T09:36:22.390Z,9.56
2016-03-07T09:37:22.392Z,9.61
2016-03-07T09:38:22.442Z,9.54
2016-03-07T09:39:22.477Z,9.58
2016-03-07T09:40:22.464Z,9.65
2016-03-07T09:41:22.467Z,9.64
2016-03-07T09:42:22.501Z,9.74
2016-03-07T09:43:22.628Z,9.66
2016-03-07T09:44:22.522Z,9.8
2016-03-07T09:45:22.540Z,9.79
2016-03-07T09:46:22.558Z,9.86
2016-03-07T09:47:22.577Z,9.92
2016-03-07T09:48:22.579Z,9.94
2016-03-07T09:49:22.613Z,9.94
2016-03-07T09:50:22.631Z,10.05
2016-03-07T09:51:22.649Z,10.07
2016-03-07T09:52:22.652Z,10.13
2016-03-07T09:53:22.686Z,10.25
2016-03-07T09:54:22.689Z,10.25
2016-03-07T09:55:22.707Z,10.3
2016-03-07T09:56:22.726Z,10.3
2016-03-07T09:57:22.744Z,10.35
2016-03-07T09:58:22.763Z,10.37
2016-03-07T09:59:22.781Z,10.53
2016-03-07T10:00:22.799Z,10.54
2016-03-07T10:01:22.818Z,10.63
2016-03-07T10:02:22.835Z,10.69
2016-03-07T10:03:22.869Z,10.82
2016-03-07T10:04:22.856Z,10.84
2016-03-07T10:05:22.890Z,10.79
2016-03-07T10:06:22.926Z,10.9
2016-03-07T10:07:22.928Z,10.99
2016-03-07T10:08:22.931Z,11.04
2016-03-07T10:09:22.949Z,11.15
2016-03-07T10:10:22.982Z,11.12
2016-03-07T10:11:22.985Z,11.23
2016-03-07T10:12:23.020Z,11.23
2016-03-07T10:13:23.022Z,11.37
2016-03-07T10:14:23.040Z,11.37
2016-03-07T10:15:23.059Z,11.35
2016-03-07T10:16:23.093Z,11.41
2016-03-07T10:17:23.112Z,11.45
2016-03-07T10:18:23.115Z,11.48
2016-03-07T10:19:23.133Z,11.52
2016-03-07T10:20:23.152Z,11.59
2016-03-07T10:21:23.170Z,11.7
2016-03-07T10:22:23.188Z,11.65
2016-03-07T10:23:23.222Z,11.69
2016-03-07T10:24:23.241Z,11.7
2016-03-07T10:25:23.243Z,11.78
2016-03-07T10:26:23.262Z,11.72
2016-03-07T10:27:23.279Z,11.81
2016-03-07T10:28:23.298Z,11.8
2016-03-07T10:29:23.317Z,11.75
2016-03-07T10:30:23.335Z,11.8
2016-03-07T10:31:23.369Z,11.86
2016-03-07T10:32:23.387Z,11.87
2016-03-07T10:33:23.390Z,11.94
2016-03-07T10:34:23.408Z,11.87
2016-03-07T10:35:23.426Z,11.97
2016-03-07T10:36:23.460Z,11.87
2016-03-07T10:37:23.510Z,11.86
2016-03-07T10:38:23.497Z,11.9
2016-03-07T10:39:23.500Z,11.9
2016-03-07T10:40:23.533Z,11.94
2016-03-07T10:41:23.380Z,11.95
2016-03-07T10:42:23.570Z,11.9
2016-03-07T10:43:23.572Z,11.91
2016-03-07T10:44:23.575Z,11.9
2016-03-07T10:45:23.625Z,11.84
2016-03-07T10:46:23.628Z,11.97
2016-03-07T10:47:23.662Z,11.87
2016-03-07T10:48:23.665Z,11.87
2016-03-07T10:49:23.714Z,11.9
2016-03-07T10:50:23.716Z,11.87
2016-03-07T10:51:23.735Z,11.95
2016-03-07T10:52:23.738Z,11.91
2016-03-07T10:53:23.803Z,11.97
2016-03-07T10:54:23.774Z,11.86
2016-03-07T10:55:23.823Z,11.84
2016-03-07T10:56:23.812Z,11.94
2016-03-07T10:57:23.845Z,11.94
2016-03-07T10:58:23.863Z,11.94
2016-03-07T10:59:23.772Z,11.91
2016-03-07T11:00:24.456Z,11.95
2016-03-07T11:01:23.926Z,11.88
2016-03-07T11:02:23.959Z,11.97
2016-03-07T11:03:28.447Z,11.88
2016-03-07T11:04:23.980Z,11.9
2016-03-07T11:05:24.014Z,11.9
2016-03-07T11:06:24.016Z,11.86
2016-03-07T11:07:24.051Z,11.9
2016-03-07T11:08:24.038Z,11.99
2016-03-07T11:09:24.072Z,11.99
2016-03-07T11:10:24.106Z,11.99
2016-03-07T11:11:24.124Z,12
2016-03-07T11:12:24.127Z,12.02
2016-03-07T11:13:24.146Z,12.13
2016-03-07T11:14:24.163Z,12.02
2016-03-07T11:15:24.197Z,12.06
2016-03-07T11:16:24.215Z,12.04
2016-03-07T11:17:24.234Z,12.09
2016-03-07T11:18:24.081Z,12.1
2016-03-07T11:19:24.270Z,12.06
2016-03-07T11:20:24.273Z,12.06
2016-03-07T11:21:24.307Z,12.07
2016-03-07T11:22:24.325Z,12.06
2016-03-07T11:23:24.345Z,12.09
2016-03-07T11:24:24.362Z,12.06
2016-03-07T11:25:24.427Z,12.1
2016-03-07T11:26:24.398Z,12.06
2016-03-07T11:27:24.433Z,12.06
2016-03-07T11:28:24.435Z,12.04
2016-03-07T11:29:24.453Z,12.07
2016-03-07T11:30:24.472Z,12.09
2016-03-07T11:31:24.491Z,12.04
2016-03-07T11:32:24.524Z,12.1
2016-03-07T11:33:24.527Z,12.07
2016-03-07T11:34:24.561Z,12.07
2016-03-07T11:35:24.563Z,12.13
2016-03-07T11:36:24.597Z,12.17
2016-03-07T11:37:24.616Z,12.25
2016-03-07T11:38:24.619Z,12.22
2016-03-07T11:39:24.652Z,12.18
2016-03-07T11:40:24.670Z,12.28
2016-03-07T11:41:24.705Z,12.31
2016-03-07T11:42:24.707Z,12.36
2016-03-07T11:43:24.741Z,12.31
2016-03-07T11:44:25.103Z,12.39
2016-03-07T11:45:24.779Z,12.42
2016-03-07T11:46:24.796Z,12.45
2016-03-07T11:47:24.814Z,12.53
2016-03-07T11:48:24.833Z,12.47
2016-03-07T11:49:24.851Z,12.49
2016-03-07T11:50:24.869Z,12.47
2016-03-07T11:51:24.888Z,12.55
2016-03-07T11:52:24.907Z,12.57
2016-03-07T11:53:24.940Z,12.57
2016-03-07T11:54:24.942Z,12.64
2016-03-07T11:55:24.976Z,12.6
2016-03-07T11:56:24.979Z,12.61
2016-03-07T11:57:25.013Z,12.64
2016-03-07T11:58:25.031Z,12.79
2016-03-07T11:59:25.050Z,12.67
2016-03-07T12:00:25.115Z,12.76
2016-03-07T12:01:25.087Z,12.78
2016-03-07T12:02:25.105Z,12.82
2016-03-07T12:03:25.139Z,12.86
2016-03-07T12:04:25.141Z,12.97
2016-03-07T12:05:25.175Z,12.95
2016-03-07T12:06:25.181Z,12.97
2016-03-07T12:07:25.197Z,13.04
2016-03-07T12:08:25.230Z,13.01
2016-03-07T12:09:25.248Z,13
2016-03-07T12:10:25.267Z,13.09
2016-03-07T12:11:25.285Z,13.05
2016-03-07T12:12:25.318Z,13.09
2016-03-07T12:13:25.337Z,13.16
2016-03-07T12:14:25.356Z,13.2
2016-03-07T12:15:25.295Z,13.18
2016-03-07T12:16:25.392Z,13.13
2016-03-07T12:17:25.411Z,13.18
2016-03-07T12:18:25.429Z,13.19
2016-03-07T12:19:25.462Z,13.27
2016-03-07T12:20:25.465Z,13.3
2016-03-07T12:21:25.484Z,13.39
2016-03-07T12:22:25.518Z,13.33
2016-03-07T12:23:25.536Z,13.49
2016-03-07T12:24:25.554Z,13.52
2016-03-07T12:25:25.573Z,13.5
2016-03-07T12:26:25.591Z,13.6
2016-03-07T12:27:25.609Z,13.59
2016-03-07T12:28:25.628Z,13.62
2016-03-07T12:29:25.647Z,13.65
2016-03-07T12:30:25.556Z,13.6
2016-03-07T12:31:25.698Z,13.62
2016-03-07T12:32:25.717Z,13.67
2016-03-07T12:33:25.735Z,13.75
2016-03-07T12:34:25.597Z,13.74
2016-03-07T12:35:25.803Z,13.74
2016-03-07T12:36:25.790Z,13.77
2016-03-07T12:37:25.808Z,13.81
2016-03-07T12:38:25.842Z,13.78
2016-03-07T12:39:25.860Z,13.86
2016-03-07T12:40:25.894Z,13.87
2016-03-07T12:41:25.897Z,13.93
2016-03-07T12:42:25.916Z,13.92
2016-03-07T12:43:25.934Z,13.95
2016-03-07T12:44:26.046Z,14.04
2016-03-07T12:45:25.986Z,14.05
2016-03-07T12:46:26.004Z,14.15
2016-03-07T12:47:26.070Z,14.18
2016-03-07T12:48:26.040Z,14.12
2016-03-07T12:49:26.060Z,14.15
2016-03-07T12:50:26.093Z,14.17
2016-03-07T12:51:26.111Z,14.25
2016-03-07T12:52:26.130Z,14.28
2016-03-07T12:53:26.148Z,14.26
2016-03-07T12:54:26.166Z,14.28
2016-03-07T12:55:26.201Z,14.28
2016-03-07T12:56:26.219Z,14.28
2016-03-07T12:57:26.237Z,14.29
2016-03-07T12:58:26.286Z,14.26
2016-03-07T12:59:26.273Z,14.23
2016-03-07T13:00:26.323Z,14.23
2016-03-07T13:01:26.325Z,14.37
2016-03-07T13:02:26.344Z,14.33
2016-03-07T13:03:26.363Z,14.33
2016-03-07T13:04:26.427Z,14.36
2016-03-07T13:05:26.399Z,14.44
2016-03-07T13:06:26.449Z,14.43
2016-03-07T13:07:26.435Z,14.43
2016-03-07T13:08:26.469Z,14.45
2016-03-07T13:09:26.488Z,14.44
2016-03-07T13:10:26.521Z,14.43
2016-03-07T13:11:26.540Z,14.51
2016-03-07T13:12:26.590Z,14.51
2016-03-07T13:13:26.577Z,14.51
2016-03-07T13:14:26.610Z,14.41
2016-03-07T13:15:26.629Z,14.5
2016-03-07T13:16:26.648Z,14.51
2016-03-07T13:17:26.681Z,14.51
2016-03-07T13:18:26.715Z,14.5
2016-03-07T13:19:26.718Z,14.58
2016-03-07T13:20:26.799Z,14.51
2016-03-07T13:21:26.598Z,14.5
2016-03-07T13:22:26.773Z,14.62
2016-03-07T13:23:26.806Z,14.54
2016-03-07T13:24:26.826Z,14.63
2016-03-07T13:25:26.859Z,14.63
2016-03-07T13:26:26.877Z,14.63